< < Back
Terminal Aerodrome Forecast


Current Version              Previous Versions:   1  2  3  4  5  6  7  8  9  

Terminal Aerodrome Forecast

203
FTUS42 KGSP 090536
TAFCLT
TAF
KCLT 090536Z 0906/1006 29004KT P6SM FEW040 SCT060
     FM091500 28009G16KT P6SM SCT045 BKN060
     FM100000 30005KT P6SM SCT060 BKN080=

Latest METAR

459
SAUS70 KWBC 091300 RRI
MTRCLT
METAR KCLT 091252Z 25004KT 10SM BKN100 BKN250 01/M06 A2971 RMK AO2
SLP063 T00111061


USA.gov is the U.S. government's official web portal to all federal, state and local government web resources and services.